KMYF

Montgomery-Gibbs Executive Airport

San Diego, California, USA
METAR KMYF 260353Z AUTO 30009KT 10SM FEW020 BKN026 16/12 A3008 RMK AO2 SLP182 T01610117
Observed Flight Rules
May-26 @ 03:53 UTC (31 minutes ago) Marginal Visual Flight Rules
Wind Visibility Clouds
300° at 9 knots 10 miles
  • Few at 2,000' AGL
  • Broken at 2,600' AGL
Temperatures Readings
Current 16°C / 61°F
Dewpoint 12°C / 54°F
Humidity 77%
Altimeter 30.08" Hg
Pressure 1018.2 hPa
Elevation 136
METAR KMYF 260353Z AUTO 30009KT 10SM FEW020 BKN026 16/12 A3008 RMK AO2 SLP182 T01610117
Observed Flight Rules
May-26 @ 03:53 UTC
(31 minutes ago)
MVFR
Wind Visibility
300° at 9 knots 10 miles
Clouds
  • Few at 2,000' AGL
  • Broken at 2,600' AGL
Temperature Dewpoint
16°C / 61°F 12°C / 54°F
Humidity Altimeter Pressure
77% 30.08" Hg 1018.2 hPa